Time;durP1;ratioP1;P1;durP2;ratioP2;P2;SDS_P1;SDS_P2;PMS_P1;PMS_P2;Temp;Humidity;BMP_temperature;BMP_pressure;BME280_temperature;BME280_humidity;BME280_pressure;Samples;Min_cycle;Max_cycle;Signal;HPM_P1;HPM_P2
2022/04/24 00:00:23;;;;;;;12.50;9.77;;;;;;;;;;5049906;28;20048;-64
2022/04/24 00:02:50;;;;;;;17.58;9.38;;;;;;;;;;5048115;28;20072;-64
2022/04/24 00:05:16;;;;;;;13.65;10.10;;;;;;;;;;5066133;28;20044;-64
2022/04/24 00:07:43;;;;;;;12.45;9.27;;;;;;;;;;5047518;28;20080;-64
2022/04/24 00:10:10;;;;;;;11.05;9.02;;;;;;;;;;5049352;28;20108;-64
2022/04/24 00:12:37;;;;;;;12.15;9.30;;;;;;;;;;5059125;28;20393;-64
2022/04/24 00:15:03;;;;;;;14.10;9.25;;;;;;;;;;5054808;28;20039;-64
2022/04/24 00:17:29;;;;;;;11.35;9.38;;;;;;;;;;5063456;28;20040;-64
2022/04/24 00:19:55;;;;;;;14.23;8.98;;;;;;;;;;5066255;28;20032;-64
2022/04/24 00:22:21;;;;;;;13.88;8.30;;;;;;;;;;5050055;28;20084;-64
2022/04/24 00:24:47;;;;;;;11.55;8.82;;;;;;;;;;5064037;28;20364;-64
2022/04/24 00:27:14;;;;;;;12.93;8.73;;;;;;;;;;5064055;28;20041;-64
2022/04/24 00:29:40;;;;;;;10.68;8.27;;;;;;;;;;5064476;28;20067;-64
2022/04/24 00:32:06;;;;;;;11.55;8.32;;;;;;;;;;5046445;28;20051;-64
2022/04/24 00:34:33;;;;;;;14.25;7.97;;;;;;;;;;5060567;28;20476;-64
2022/04/24 00:36:59;;;;;;;11.70;8.38;;;;;;;;;;5049965;28;20135;-64
2022/04/24 00:39:25;;;;;;;12.25;7.85;;;;;;;;;;5066407;28;20568;-64
2022/04/24 00:41:52;;;;;;;11.48;8.15;;;;;;;;;;5046260;28;20075;-64
2022/04/24 00:44:19;;;;;;;16.77;8.30;;;;;;;;;;5065475;28;20044;-64
2022/04/24 00:46:54;;;;;;;10.02;8.07;;;;;;;;;;5070758;28;20064;-64
2022/04/24 00:49:20;;;;;;;12.35;8.07;;;;;;;;;;5045903;28;21828;-64
2022/04/24 00:51:46;;;;;;;16.20;7.53;;;;;;;;;;5047502;28;20425;-64
2022/04/24 00:54:12;;;;;;;11.05;8.40;;;;;;;;;;5048372;28;20040;-65
2022/04/24 00:56:40;;;;;;;10.18;7.32;;;;;;;;;;5063731;28;20033;-64
2022/04/24 00:59:07;;;;;;;11.35;7.25;;;;;;;;;;5065769;28;20384;-64
2022/04/24 01:01:34;;;;;;;11.70;7.47;;;;;;;;;;5045680;28;20041;-64
2022/04/24 01:04:01;;;;;;;11.98;7.88;;;;;;;;;;5057821;28;20059;-64
2022/04/24 01:06:28;;;;;;;11.00;7.70;;;;;;;;;;5060561;28;20404;-64
2022/04/24 01:08:54;;;;;;;11.88;7.68;;;;;;;;;;5061364;28;20041;-64
2022/04/24 01:11:20;;;;;;;13.73;7.85;;;;;;;;;;5061850;28;20075;-65
2022/04/24 01:13:46;;;;;;;9.63;7.68;;;;;;;;;;5045098;28;20053;-64
2022/04/24 01:16:13;;;;;;;13.40;7.57;;;;;;;;;;5044710;28;20599;-64
2022/04/24 01:18:39;;;;;;;21.67;8.63;;;;;;;;;;5064453;28;20047;-64
2022/04/24 01:21:07;;;;;;;9.57;7.53;;;;;;;;;;5058468;28;20037;-64
2022/04/24 01:23:34;;;;;;;12.23;8.30;;;;;;;;;;5058816;28;20087;-64
2022/04/24 01:26:00;;;;;;;12.70;7.90;;;;;;;;;;5044235;28;20044;-64
2022/04/24 01:28:26;;;;;;;9.30;7.03;;;;;;;;;;5058595;28;20148;-64
2022/04/24 01:30:52;;;;;;;10.48;7.38;;;;;;;;;;5043284;28;20041;-64
2022/04/24 01:33:18;;;;;;;11.98;7.97;;;;;;;;;;5043589;28;20044;-64
2022/04/24 01:35:44;;;;;;;11.73;7.90;;;;;;;;;;5063631;28;20047;-64
2022/04/24 01:38:10;;;;;;;9.38;7.57;;;;;;;;;;5060339;28;20053;-64
2022/04/24 01:40:37;;;;;;;15.25;7.95;;;;;;;;;;5057545;28;20059;-64
2022/04/24 01:43:03;;;;;;;9.57;7.63;;;;;;;;;;5041875;28;20477;-64
2022/04/24 01:45:29;;;;;;;14.85;7.57;;;;;;;;;;5062473;28;20595;-64
2022/04/24 01:47:56;;;;;;;11.70;8.05;;;;;;;;;;5044501;28;20105;-64
2022/04/24 01:50:22;;;;;;;10.90;7.50;;;;;;;;;;5062788;28;20551;-64
2022/04/24 01:52:48;;;;;;;12.70;7.95;;;;;;;;;;5060467;28;20435;-64
2022/04/24 01:55:14;;;;;;;10.43;7.88;;;;;;;;;;5065452;28;20082;-64
2022/04/24 01:57:40;;;;;;;12.15;7.35;;;;;;;;;;5062333;28;20044;-64
2022/04/24 02:00:07;;;;;;;13.13;7.97;;;;;;;;;;5062103;28;20060;-64
2022/04/24 02:02:33;;;;;;;10.57;7.57;;;;;;;;;;5044913;28;20939;-64
2022/04/24 02:04:59;;;;;;;11.95;8.25;;;;;;;;;;5043924;28;20156;-65
2022/04/24 02:07:26;;;;;;;11.88;8.88;;;;;;;;;;5064717;28;20487;-64
2022/04/24 02:09:52;;;;;;;10.05;7.75;;;;;;;;;;5060738;28;20119;-64
2022/04/24 02:12:18;;;;;;;10.20;7.60;;;;;;;;;;5047251;28;20559;-65
2022/04/24 02:14:44;;;;;;;12.40;8.13;;;;;;;;;;5060188;28;20162;-64
2022/04/24 02:17:10;;;;;;;10.77;7.22;;;;;;;;;;5058889;28;20040;-64
2022/04/24 02:19:37;;;;;;;11.10;8.27;;;;;;;;;;5064636;28;20434;-64
2022/04/24 02:22:03;;;;;;;9.82;7.63;;;;;;;;;;5062793;28;20195;-64
2022/04/24 02:24:29;;;;;;;11.50;8.40;;;;;;;;;;5061220;28;20033;-65
2022/04/24 02:26:56;;;;;;;13.10;8.05;;;;;;;;;;5061428;28;20048;-64
2022/04/24 02:29:22;;;;;;;12.95;8.35;;;;;;;;;;5059779;28;20049;-65
2022/04/24 02:31:48;;;;;;;12.98;8.55;;;;;;;;;;5030980;28;20063;-65
2022/04/24 02:34:14;;;;;;;12.98;8.43;;;;;;;;;;5043936;28;20445;-64
2022/04/24 02:36:40;;;;;;;12.07;8.43;;;;;;;;;;5062747;28;20036;-64
2022/04/24 02:39:06;;;;;;;12.45;8.43;;;;;;;;;;5062853;28;20510;-64
2022/04/24 02:41:33;;;;;;;11.15;7.95;;;;;;;;;;5059372;28;20052;-64
2022/04/24 02:43:59;;;;;;;16.35;8.50;;;;;;;;;;5044481;28;20048;-64
2022/04/24 02:46:25;;;;;;;11.60;8.68;;;;;;;;;;5057052;28;20043;-64
2022/04/24 02:48:51;;;;;;;10.85;7.95;;;;;;;;;;5036944;28;20052;-64
2022/04/24 02:51:17;;;;;;;12.32;8.27;;;;;;;;;;5042867;28;20036;-64
2022/04/24 02:53:43;;;;;;;13.98;8.88;;;;;;;;;;5045324;28;20597;-64
2022/04/24 02:56:10;;;;;;;13.20;8.40;;;;;;;;;;5045171;28;20515;-64
2022/04/24 02:58:38;;;;;;;13.80;8.68;;;;;;;;;;5062720;28;20069;-64
2022/04/24 03:01:04;;;;;;;12.63;8.68;;;;;;;;;;5059376;28;20044;-64
2022/04/24 03:03:30;;;;;;;11.63;8.32;;;;;;;;;;5046776;28;20045;-64
2022/04/24 03:05:57;;;;;;;13.13;9.10;;;;;;;;;;5045389;28;20064;-64
2022/04/24 03:08:23;;;;;;;12.90;9.48;;;;;;;;;;5047493;28;20048;-64
2022/04/24 03:10:49;;;;;;;12.43;9.32;;;;;;;;;;5066881;28;20044;-64
2022/04/24 03:13:15;;;;;;;10.75;8.00;;;;;;;;;;5044512;28;20098;-64
2022/04/24 03:15:42;;;;;;;13.32;8.85;;;;;;;;;;5062513;28;20109;-64
2022/04/24 03:18:08;;;;;;;11.45;7.90;;;;;;;;;;5047481;28;20040;-65
2022/04/24 03:20:34;;;;;;;9.32;7.22;;;;;;;;;;5064264;28;20044;-64
2022/04/24 03:23:00;;;;;;;14.25;7.75;;;;;;;;;;5048100;28;20064;-64
2022/04/24 03:25:26;;;;;;;10.60;8.05;;;;;;;;;;5063965;28;20446;-64
2022/04/24 03:27:52;;;;;;;15.60;8.60;;;;;;;;;;5067793;28;20436;-64
2022/04/24 03:30:19;;;;;;;11.48;8.88;;;;;;;;;;5064526;28;20131;-64
2022/04/24 03:32:45;;;;;;;12.27;8.70;;;;;;;;;;5049030;28;20128;-64
2022/04/24 03:35:11;;;;;;;11.98;7.88;;;;;;;;;;5049961;28;21678;-64
2022/04/24 03:37:38;;;;;;;11.90;8.07;;;;;;;;;;5063665;28;20122;-65
2022/04/24 03:40:05;;;;;;;11.43;8.23;;;;;;;;;;5050546;28;20036;-64
2022/04/24 03:42:32;;;;;;;12.00;7.82;;;;;;;;;;5064143;28;20128;-64
2022/04/24 03:44:58;;;;;;;14.35;8.85;;;;;;;;;;5047487;28;20040;-64
2022/04/24 03:47:24;;;;;;;9.82;7.85;;;;;;;;;;5048479;28;20552;-64
2022/04/24 03:49:51;;;;;;;14.95;8.90;;;;;;;;;;5067647;28;20369;-64
2022/04/24 03:52:17;;;;;;;10.63;7.93;;;;;;;;;;5046514;28;20222;-64
2022/04/24 03:54:44;;;;;;;13.30;7.55;;;;;;;;;;5051316;28;20147;-64
2022/04/24 03:57:11;;;;;;;12.20;8.02;;;;;;;;;;5065043;28;20036;-64
2022/04/24 03:59:37;;;;;;;11.20;8.15;;;;;;;;;;5061892;28;20480;-64
2022/04/24 04:02:03;;;;;;;16.23;7.65;;;;;;;;;;5064579;28;20037;-65
2022/04/24 04:04:30;;;;;;;11.57;8.50;;;;;;;;;;5049004;28;20056;-64
2022/04/24 04:06:56;;;;;;;10.75;7.20;;;;;;;;;;5047758;28;20052;-64
2022/04/24 04:09:23;;;;;;;16.30;7.85;;;;;;;;;;5064889;28;20044;-64
2022/04/24 04:11:49;;;;;;;14.25;7.55;;;;;;;;;;5064854;28;20051;-64
2022/04/24 04:14:15;;;;;;;10.52;7.20;;;;;;;;;;5065565;28;20040;-64
2022/04/24 04:16:41;;;;;;;12.18;7.45;;;;;;;;;;5059259;28;20040;-64
2022/04/24 04:19:08;;;;;;;11.30;7.28;;;;;;;;;;5037828;28;20575;-64
2022/04/24 04:21:34;;;;;;;12.35;7.13;;;;;;;;;;5061271;28;20756;-64
2022/04/24 04:24:00;;;;;;;11.90;6.97;;;;;;;;;;5062474;28;20056;-64
2022/04/24 04:26:26;;;;;;;14.32;6.90;;;;;;;;;;5063306;28;20060;-64
2022/04/24 04:28:53;;;;;;;11.80;6.70;;;;;;;;;;5049022;28;20051;-64
2022/04/24 04:31:19;;;;;;;10.38;7.05;;;;;;;;;;5062507;28;20460;-64
2022/04/24 04:33:45;;;;;;;10.48;7.72;;;;;;;;;;5062620;28;20098;-64
2022/04/24 04:36:11;;;;;;;10.88;7.30;;;;;;;;;;5065940;28;20524;-64
2022/04/24 04:38:37;;;;;;;11.10;7.70;;;;;;;;;;5065842;28;20524;-64
2022/04/24 04:41:04;;;;;;;15.60;7.25;;;;;;;;;;5045845;28;20041;-64
2022/04/24 04:43:30;;;;;;;9.93;7.05;;;;;;;;;;5046171;28;20049;-64
2022/04/24 04:45:57;;;;;;;11.88;7.47;;;;;;;;;;5043515;28;20052;-64
2022/04/24 04:48:23;;;;;;;9.13;7.28;;;;;;;;;;5046700;28;20090;-64
2022/04/24 04:50:49;;;;;;;14.57;7.30;;;;;;;;;;5045774;28;20502;-64
2022/04/24 04:53:15;;;;;;;10.95;7.65;;;;;;;;;;5059173;28;20033;-64
2022/04/24 04:55:42;;;;;;;9.45;6.80;;;;;;;;;;5044701;28;20448;-64
2022/04/24 04:58:08;;;;;;;15.43;8.45;;;;;;;;;;5042831;28;20059;-64
2022/04/24 05:00:34;;;;;;;11.65;7.07;;;;;;;;;;5066744;28;20124;-64
2022/04/24 05:03:00;;;;;;;11.70;7.18;;;;;;;;;;5041167;28;20060;-64
2022/04/24 05:05:27;;;;;;;13.93;7.50;;;;;;;;;;5045839;28;20049;-64
2022/04/24 05:07:53;;;;;;;14.52;7.95;;;;;;;;;;5062487;28;20079;-63
2022/04/24 05:10:19;;;;;;;12.52;7.13;;;;;;;;;;5041236;28;20164;-64
2022/04/24 05:12:46;;;;;;;11.80;6.88;;;;;;;;;;5061245;28;20377;-64
2022/04/24 05:15:13;;;;;;;17.88;8.20;;;;;;;;;;5063961;28;20055;-63
2022/04/24 05:17:40;;;;;;;11.98;7.45;;;;;;;;;;5065598;28;20055;-64
2022/04/24 05:20:07;;;;;;;13.18;7.35;;;;;;;;;;5059742;28;20559;-64
2022/04/24 05:22:33;;;;;;;13.50;7.75;;;;;;;;;;5058283;28;20374;-64
2022/04/24 05:24:59;;;;;;;9.52;6.68;;;;;;;;;;5064820;28;20075;-64
2022/04/24 05:27:26;;;;;;;12.57;8.38;;;;;;;;;;5045681;28;20044;-64
2022/04/24 05:29:52;;;;;;;12.48;7.78;;;;;;;;;;5064606;28;20041;-64
2022/04/24 05:32:18;;;;;;;12.05;8.07;;;;;;;;;;5066661;28;20070;-64
2022/04/24 05:34:44;;;;;;;13.63;8.05;;;;;;;;;;5061917;28;20029;-64
2022/04/24 05:37:11;;;;;;;11.20;8.40;;;;;;;;;;5061766;28;20510;-63
2022/04/24 05:39:37;;;;;;;11.95;7.47;;;;;;;;;;5054905;28;20041;-63
2022/04/24 05:42:04;;;;;;;11.35;7.30;;;;;;;;;;5057707;28;20051;-63
2022/04/24 05:44:30;;;;;;;14.80;8.25;;;;;;;;;;5059788;28;20059;-63
2022/04/24 05:46:56;;;;;;;14.30;8.77;;;;;;;;;;5062059;28;20067;-63
2022/04/24 05:49:22;;;;;;;12.45;7.28;;;;;;;;;;5043667;28;20041;-63
2022/04/24 05:51:48;;;;;;;15.50;8.35;;;;;;;;;;5054243;28;20134;-63
2022/04/24 05:54:16;;;;;;;13.82;7.88;;;;;;;;;;5040265;28;20068;-64
2022/04/24 05:56:42;;;;;;;14.80;8.27;;;;;;;;;;5053695;28;20106;-63
2022/04/24 05:59:08;;;;;;;12.75;8.13;;;;;;;;;;5040461;28;20048;-63
2022/04/24 06:01:35;;;;;;;16.35;8.98;;;;;;;;;;5041255;28;20440;-63
2022/04/24 06:04:01;;;;;;;11.70;7.70;;;;;;;;;;5057169;28;20357;-63
2022/04/24 06:06:30;;;;;;;15.68;8.48;;;;;;;;;;5053470;28;20051;-63
2022/04/24 06:08:57;;;;;;;13.48;7.70;;;;;;;;;;5056616;28;20091;-64
2022/04/24 06:11:23;;;;;;;15.75;7.72;;;;;;;;;;5043771;28;20040;-64
2022/04/24 06:13:49;;;;;;;11.88;8.18;;;;;;;;;;5038638;28;20083;-64
2022/04/24 06:16:15;;;;;;;14.38;8.07;;;;;;;;;;5056223;28;20048;-64
2022/04/24 06:18:42;;;;;;;12.30;7.18;;;;;;;;;;5053930;28;20203;-64
2022/04/24 06:21:08;;;;;;;11.48;7.80;;;;;;;;;;5055605;28;20175;-64
2022/04/24 06:23:34;;;;;;;12.63;7.38;;;;;;;;;;5055675;28;20326;-64
2022/04/24 06:26:00;;;;;;;16.98;7.90;;;;;;;;;;5044822;28;20127;-64
2022/04/24 06:28:27;;;;;;;14.60;8.75;;;;;;;;;;5053655;28;20045;-64
2022/04/24 06:30:53;;;;;;;9.68;6.68;;;;;;;;;;5042807;28;20044;-64
2022/04/24 06:33:19;;;;;;;12.70;6.68;;;;;;;;;;5060845;28;20139;-64
2022/04/24 06:35:45;;;;;;;11.90;7.35;;;;;;;;;;5043092;28;20036;-64
2022/04/24 06:38:12;;;;;;;10.82;6.20;;;;;;;;;;5058032;28;20140;-64
2022/04/24 06:40:38;;;;;;;10.65;6.85;;;;;;;;;;5056412;28;20033;-63
2022/04/24 06:43:05;;;;;;;9.60;6.22;;;;;;;;;;5060077;28;20051;-64
2022/04/24 06:45:32;;;;;;;13.45;6.60;;;;;;;;;;5043696;28;20489;-64
2022/04/24 06:48:00;;;;;;;9.23;6.18;;;;;;;;;;5055679;28;20119;-64
2022/04/24 06:50:27;;;;;;;12.45;5.10;;;;;;;;;;5042149;28;20424;-64
2022/04/24 06:52:55;;;;;;;14.32;5.32;;;;;;;;;;5058112;28;20121;-64
2022/04/24 06:55:21;;;;;;;9.82;4.25;;;;;;;;;;5058047;28;20482;-64
2022/04/24 06:57:48;;;;;;;8.55;4.00;;;;;;;;;;5058245;28;20472;-64
2022/04/24 07:00:14;;;;;;;8.27;4.57;;;;;;;;;;5055835;28;20037;-64
2022/04/24 07:02:41;;;;;;;7.85;4.05;;;;;;;;;;5057379;28;20434;-64
2022/04/24 07:05:07;;;;;;;10.07;3.88;;;;;;;;;;5059198;28;20040;-64
2022/04/24 07:07:33;;;;;;;10.15;3.97;;;;;;;;;;5055807;28;20049;-64
2022/04/24 07:09:59;;;;;;;8.88;4.10;;;;;;;;;;5058174;28;20120;-64
2022/04/24 07:12:26;;;;;;;7.43;3.67;;;;;;;;;;5060030;28;20180;-64
2022/04/24 07:14:52;;;;;;;8.88;4.13;;;;;;;;;;5053781;28;20040;-64
2022/04/24 07:17:18;;;;;;;8.27;3.08;;;;;;;;;;5040427;28;20338;-64
2022/04/24 07:19:44;;;;;;;6.00;2.83;;;;;;;;;;5038225;28;20040;-63
2022/04/24 07:22:11;;;;;;;5.13;2.60;;;;;;;;;;5054893;28;20051;-64
2022/04/24 07:24:37;;;;;;;7.75;2.90;;;;;;;;;;5039284;28;20040;-64
2022/04/24 07:27:04;;;;;;;6.85;2.75;;;;;;;;;;5032688;28;20044;-64
2022/04/24 07:29:30;;;;;;;7.63;2.70;;;;;;;;;;5052399;28;20037;-64
2022/04/24 07:31:57;;;;;;;8.23;2.58;;;;;;;;;;5056114;28;20070;-64
2022/04/24 07:34:23;;;;;;;6.32;2.70;;;;;;;;;;5056119;28;20123;-64
2022/04/24 07:36:49;;;;;;;5.22;2.40;;;;;;;;;;5055899;28;20046;-76
2022/04/24 07:39:16;;;;;;;5.18;2.42;;;;;;;;;;5057712;28;20124;-65
2022/04/24 07:41:42;;;;;;;6.55;2.92;;;;;;;;;;5058332;28;20468;-62
2022/04/24 07:44:08;;;;;;;4.22;2.00;;;;;;;;;;5043831;28;20484;-64
2022/04/24 07:46:34;;;;;;;6.50;2.50;;;;;;;;;;5061302;28;20098;-64
2022/04/24 07:49:01;;;;;;;5.20;2.28;;;;;;;;;;5049336;28;20105;-65
2022/04/24 07:51:27;;;;;;;6.82;2.33;;;;;;;;;;5051466;28;20045;-65
2022/04/24 07:53:53;;;;;;;7.18;2.20;;;;;;;;;;5041231;28;20124;-65
2022/04/24 07:56:19;;;;;;;6.25;2.67;;;;;;;;;;5065525;28;20033;-65
2022/04/24 07:58:45;;;;;;;6.88;2.92;;;;;;;;;;5057882;28;20423;-64
2022/04/24 08:01:16;;;;;;;7.22;2.38;;;;;;;;;;5061885;28;20123;-65
2022/04/24 08:03:42;;;;;;;5.28;2.20;;;;;;;;;;5063497;28;20049;-64
2022/04/24 08:06:08;;;;;;;6.93;2.15;;;;;;;;;;5045695;28;20123;-64
2022/04/24 08:08:34;;;;;;;5.97;2.38;;;;;;;;;;5057314;28;20066;-65
2022/04/24 08:11:01;;;;;;;6.55;2.25;;;;;;;;;;5058185;28;20036;-65
2022/04/24 08:13:27;;;;;;;4.60;1.90;;;;;;;;;;5052913;28;20073;-65
2022/04/24 08:15:54;;;;;;;5.78;2.10;;;;;;;;;;5059583;28;20391;-65
2022/04/24 08:18:20;;;;;;;5.50;2.40;;;;;;;;;;5045498;28;20099;-64
2022/04/24 08:20:47;;;;;;;5.60;1.92;;;;;;;;;;5057827;28;20044;-65
2022/04/24 08:23:15;;;;;;;5.95;1.80;;;;;;;;;;5037234;28;20056;-64
2022/04/24 08:25:42;;;;;;;5.80;3.00;;;;;;;;;;5064206;28;20052;-64
2022/04/24 08:28:09;;;;;;;6.82;2.65;;;;;;;;;;5065328;28;20388;-64
2022/04/24 08:30:39;;;;;;;4.95;2.15;;;;;;;;;;5056775;28;20037;-64
2022/04/24 08:33:05;;;;;;;6.90;2.50;;;;;;;;;;5041172;28;20040;-64
2022/04/24 08:35:31;;;;;;;6.97;2.72;;;;;;;;;;5061801;28;20048;-65
2022/04/24 08:37:57;;;;;;;7.70;2.75;;;;;;;;;;5041944;28;20523;-65
2022/04/24 08:40:24;;;;;;;7.30;3.13;;;;;;;;;;5036972;28;20037;-65
2022/04/24 08:42:53;;;;;;;11.00;2.42;;;;;;;;;;5048731;28;20095;-65
2022/04/24 08:45:22;;;;;;;6.43;2.80;;;;;;;;;;5048507;28;20168;-65
2022/04/24 08:47:48;;;;;;;6.00;2.83;;;;;;;;;;5043984;28;20048;-65
2022/04/24 08:50:14;;;;;;;7.72;3.38;;;;;;;;;;5042474;28;20044;-65
2022/04/24 08:52:43;;;;;;;5.40;2.10;;;;;;;;;;5039324;28;20064;-65
2022/04/24 08:55:09;;;;;;;8.05;2.83;;;;;;;;;;5036799;28;20132;-65
2022/04/24 08:57:35;;;;;;;8.15;3.20;;;;;;;;;;5049117;28;20476;-64
2022/04/24 09:00:02;;;;;;;8.18;3.03;;;;;;;;;;5048278;28;20095;-65
2022/04/24 09:02:28;;;;;;;5.25;3.08;;;;;;;;;;5043356;28;20402;-65
2022/04/24 09:04:55;;;;;;;5.72;2.78;;;;;;;;;;5041938;28;20037;-64
2022/04/24 09:07:22;;;;;;;10.70;3.00;;;;;;;;;;5042951;28;21309;-64
2022/04/24 09:09:50;;;;;;;8.10;3.95;;;;;;;;;;5047133;28;20049;-64
2022/04/24 09:12:18;;;;;;;8.48;3.28;;;;;;;;;;5047299;28;20037;-65
2022/04/24 09:14:49;;;;;;;8.30;3.30;;;;;;;;;;5043653;28;20049;-65
2022/04/24 09:17:17;;;;;;;11.38;3.85;;;;;;;;;;5048924;28;20088;-65
2022/04/24 09:19:43;;;;;;;7.88;3.85;;;;;;;;;;5041437;28;20115;-65
2022/04/24 09:22:10;;;;;;;10.55;4.50;;;;;;;;;;5038972;28;20397;-65
2022/04/24 09:24:45;;;;;;;8.57;3.90;;;;;;;;;;5034807;28;20045;-64
2022/04/24 09:27:12;;;;;;;9.98;4.40;;;;;;;;;;5043034;28;20045;-64
2022/04/24 09:29:40;;;;;;;11.52;3.67;;;;;;;;;;5048910;28;20048;-64
2022/04/24 09:32:10;;;;;;;6.60;3.40;;;;;;;;;;5046744;28;20041;-64
2022/04/24 09:34:37;;;;;;;7.30;3.72;;;;;;;;;;5034954;28;20441;-64
2022/04/24 09:37:06;;;;;;;7.38;4.03;;;;;;;;;;5037073;28;20088;-64
2022/04/24 09:39:33;;;;;;;8.45;4.15;;;;;;;;;;5050572;28;20047;-64
2022/04/24 09:42:07;;;;;;;6.57;3.72;;;;;;;;;;5048246;28;20054;-64
2022/04/24 09:44:33;;;;;;;;;;;;;;;;;;5033561;28;20045;-64
2022/04/24 09:46:59;;;;;;;8.00;3.38;;;;;;;;;;5036005;28;19990;-64
2022/04/24 09:49:26;;;;;;;9.32;4.00;;;;;;;;;;5045977;28;20045;-65
2022/04/24 09:51:52;;;;;;;8.07;3.50;;;;;;;;;;5045406;28;20041;-65
2022/04/24 09:54:18;;;;;;;8.48;3.50;;;;;;;;;;5048526;28;20400;-65
2022/04/24 09:56:45;;;;;;;8.05;3.75;;;;;;;;;;5048639;28;20392;-65
2022/04/24 09:59:12;;;;;;;17.92;4.60;;;;;;;;;;5047135;28;20055;-65
2022/04/24 10:01:38;;;;;;;9.48;3.60;;;;;;;;;;5050075;28;20041;-64
2022/04/24 10:04:05;;;;;;;12.15;3.58;;;;;;;;;;5045842;28;20045;-76
2022/04/24 10:06:32;;;;;;;8.13;3.17;;;;;;;;;;5028963;28;20749;-65
2022/04/24 10:09:00;;;;;;;8.15;3.65;;;;;;;;;;5041421;28;20045;-65
2022/04/24 10:11:26;;;;;;;9.07;3.40;;;;;;;;;;5047490;28;20049;-65
2022/04/24 10:13:58;;;;;;;9.05;3.70;;;;;;;;;;5048959;28;20056;-65
2022/04/24 10:16:28;;;;;;;9.65;3.83;;;;;;;;;;5047721;28;20492;-65
2022/04/24 10:18:59;;;;;;;12.80;3.90;;;;;;;;;;5047846;28;20041;-65
2022/04/24 10:21:32;;;;;;;9.38;3.20;;;;;;;;;;5047574;28;20489;-65
2022/04/24 10:24:07;;;;;;;9.82;3.70;;;;;;;;;;5049388;28;20090;-65
2022/04/24 10:26:34;;;;;;;12.30;4.00;;;;;;;;;;5046101;28;20107;-65
2022/04/24 10:29:02;;;;;;;7.97;3.40;;;;;;;;;;5048394;28;20057;-65
2022/04/24 10:31:29;;;;;;;9.60;3.42;;;;;;;;;;5042502;28;20048;-65
2022/04/24 10:33:56;;;;;;;8.18;3.70;;;;;;;;;;5044768;28;20162;-65
2022/04/24 10:36:23;;;;;;;11.85;3.42;;;;;;;;;;5046220;28;20358;-76
2022/04/24 10:38:52;;;;;;;8.57;3.50;;;;;;;;;;5046973;28;20087;-65
2022/04/24 10:41:19;;;;;;;8.75;2.90;;;;;;;;;;5048405;28;20093;-65
2022/04/24 10:43:49;;;;;;;11.85;3.85;;;;;;;;;;5045898;28;20194;-65
2022/04/24 10:46:17;;;;;;;7.95;3.13;;;;;;;;;;5046258;28;20461;-64
2022/04/24 10:48:43;;;;;;;10.65;4.00;;;;;;;;;;5041272;28;20053;-64
2022/04/24 10:51:10;;;;;;;9.38;3.38;;;;;;;;;;5048487;28;20048;-64
2022/04/24 10:53:50;;;;;;;6.97;2.75;;;;;;;;;;5043382;28;20107;-64
2022/04/24 10:56:16;;;;;;;11.85;3.42;;;;;;;;;;5046777;28;20106;-65
2022/04/24 10:58:42;;;;;;;9.15;3.58;;;;;;;;;;5047765;28;20041;-65
2022/04/24 11:01:09;;;;;;;8.07;3.33;;;;;;;;;;5042404;28;20107;-64
2022/04/24 11:03:42;;;;;;;6.57;3.30;;;;;;;;;;5048154;28;20147;-64
2022/04/24 11:06:19;;;;;;;8.35;3.33;;;;;;;;;;5044614;28;20045;-65
2022/04/24 11:08:45;;;;;;;8.98;3.75;;;;;;;;;;5042483;28;20037;-67
2022/04/24 11:11:13;;;;;;;8.32;3.78;;;;;;;;;;5046938;28;20090;-65
2022/04/24 11:13:40;;;;;;;11.50;4.22;;;;;;;;;;5044253;28;20049;-65
2022/04/24 11:16:06;;;;;;;9.63;3.72;;;;;;;;;;5044202;28;20477;-65
2022/04/24 11:18:33;;;;;;;14.35;4.07;;;;;;;;;;5043768;28;20037;-64
2022/04/24 11:21:01;;;;;;;9.65;4.28;;;;;;;;;;5036728;28;20521;-65
2022/04/24 11:23:29;;;;;;;7.20;3.72;;;;;;;;;;5041374;28;20041;-65
2022/04/24 11:25:56;;;;;;;9.35;4.20;;;;;;;;;;5041527;28;20049;-65
2022/04/24 11:28:33;;;;;;;9.10;3.92;;;;;;;;;;5042303;28;20052;-65
2022/04/24 11:31:08;;;;;;;7.15;3.53;;;;;;;;;;5047763;28;20587;-64
2022/04/24 11:33:35;;;;;;;10.57;3.83;;;;;;;;;;5037537;28;20060;-65
2022/04/24 11:36:04;;;;;;;10.15;4.38;;;;;;;;;;5041937;28;20037;-65
2022/04/24 11:38:31;;;;;;;11.65;4.72;;;;;;;;;;5056909;28;20060;-65
2022/04/24 11:40:57;;;;;;;10.13;4.30;;;;;;;;;;5049269;28;20052;-65
2022/04/24 11:43:23;;;;;;;13.40;5.05;;;;;;;;;;5046439;28;20071;-65
2022/04/24 11:51:21;;;;;;;11.68;5.07;;;;;;;;;;5050361;28;20053;-64
2022/04/24 11:53:47;;;;;;;12.35;4.85;;;;;;;;;;5051453;28;20481;-65
2022/04/24 11:56:15;;;;;;;10.32;5.20;;;;;;;;;;5048780;28;20630;-65
2022/04/24 11:58:43;;;;;;;11.60;4.75;;;;;;;;;;5046612;28;20374;-65
2022/04/24 12:01:10;;;;;;;11.25;4.57;;;;;;;;;;5047854;28;20091;-65
2022/04/24 12:03:37;;;;;;;7.88;4.40;;;;;;;;;;5048941;28;20049;-65
2022/04/24 12:06:07;;;;;;;11.75;5.20;;;;;;;;;;5048956;28;20507;-65
2022/04/24 12:08:43;;;;;;;9.40;4.93;;;;;;;;;;5050326;28;20055;-65
2022/04/24 12:11:13;;;;;;;9.45;4.13;;;;;;;;;;5048914;28;20072;-65
2022/04/24 12:13:39;;;;;;;10.15;4.45;;;;;;;;;;5046734;28;20041;-65
2022/04/24 12:16:05;;;;;;;8.00;4.47;;;;;;;;;;5045678;28;20409;-65
2022/04/24 12:18:31;;;;;;;9.30;4.60;;;;;;;;;;5048955;28;20346;-65
2022/04/24 12:20:58;;;;;;;11.30;4.93;;;;;;;;;;5045729;28;20045;-65
2022/04/24 12:23:26;;;;;;;13.85;5.40;;;;;;;;;;5052131;28;20110;-65
2022/04/24 12:25:57;;;;;;;8.55;4.80;;;;;;;;;;5047732;28;20469;-65
2022/04/24 12:28:35;;;;;;;11.80;5.45;;;;;;;;;;5048778;28;20405;-64
2022/04/24 12:31:02;;;;;;;13.23;4.82;;;;;;;;;;5041544;28;20055;-65
2022/04/24 12:33:29;;;;;;;20.58;5.80;;;;;;;;;;5048169;28;20132;-65
2022/04/24 12:35:55;;;;;;;11.90;5.80;;;;;;;;;;5048844;28;20112;-64
2022/04/24 12:38:23;;;;;;;10.45;5.28;;;;;;;;;;5041002;28;20113;-65
2022/04/24 12:40:53;;;;;;;14.18;5.38;;;;;;;;;;5045241;28;20045;-65
2022/04/24 12:43:25;;;;;;;13.10;5.43;;;;;;;;;;5042792;28;20140;-65
2022/04/24 12:45:52;;;;;;;12.10;5.53;;;;;;;;;;5060908;28;20091;-65
2022/04/24 12:48:18;;;;;;;17.20;5.38;;;;;;;;;;5048707;28;20493;-65
2022/04/24 12:50:44;;;;;;;7.25;4.63;;;;;;;;;;5048087;28;20405;-65
2022/04/24 12:53:10;;;;;;;8.80;4.28;;;;;;;;;;5048273;28;20068;-65
2022/04/24 12:55:36;;;;;;;9.77;5.18;;;;;;;;;;5044633;28;20554;-65
2022/04/24 12:58:02;;;;;;;11.40;4.40;;;;;;;;;;5028956;28;20033;-65
2022/04/24 13:00:29;;;;;;;9.85;4.53;;;;;;;;;;5043394;28;20116;-65
2022/04/24 13:02:57;;;;;;;9.30;4.20;;;;;;;;;;5047782;28;20037;-64
2022/04/24 13:05:23;;;;;;;10.10;4.90;;;;;;;;;;5046596;28;20511;-65
2022/04/24 13:07:49;;;;;;;9.85;4.95;;;;;;;;;;5047042;28;20418;-64
2022/04/24 13:10:15;;;;;;;10.02;4.00;;;;;;;;;;5045479;28;20037;-65
2022/04/24 13:12:41;;;;;;;8.52;4.03;;;;;;;;;;5030364;28;20397;-65
2022/04/24 13:15:09;;;;;;;7.20;4.32;;;;;;;;;;5043532;28;20045;-65
2022/04/24 13:20:20;;;;;;;9.27;4.28;;;;;;;;;;5042463;28;20073;-77
2022/04/24 13:22:46;;;;;;;6.72;3.90;;;;;;;;;;5044502;28;20232;-65
2022/04/24 13:25:13;;;;;;;5.55;3.15;;;;;;;;;;5047655;28;20045;-65
2022/04/24 13:27:39;;;;;;;12.90;3.75;;;;;;;;;;5046198;28;20097;-65
2022/04/24 13:30:07;;;;;;;9.27;4.03;;;;;;;;;;5047640;28;20405;-65
2022/04/24 13:32:33;;;;;;;16.17;3.90;;;;;;;;;;5045696;28;20059;-65
2022/04/24 13:34:59;;;;;;;11.20;4.03;;;;;;;;;;5048494;28;20093;-65
2022/04/24 13:40:10;;;;;;;17.10;4.07;;;;;;;;;;5042459;28;20392;-65
2022/04/24 13:42:36;;;;;;;8.90;3.72;;;;;;;;;;5048119;28;20176;-65
2022/04/24 13:45:03;;;;;;;12.75;3.53;;;;;;;;;;5048648;28;20058;-65
2022/04/24 13:47:29;;;;;;;7.07;3.30;;;;;;;;;;5048591;28;20102;-65
2022/04/24 13:49:55;;;;;;;11.20;3.60;;;;;;;;;;5041446;28;20446;-65
2022/04/24 13:52:21;;;;;;;11.15;3.45;;;;;;;;;;5048696;28;20399;-65
2022/04/24 13:54:48;;;;;;;80.50;6.28;;;;;;;;;;5046368;28;20492;-65
2022/04/24 13:57:14;;;;;;;7.35;3.33;;;;;;;;;;5048656;28;20126;-66
2022/04/24 13:59:42;;;;;;;6.75;3.13;;;;;;;;;;5048415;28;20036;-66
2022/04/24 14:02:09;;;;;;;7.97;3.10;;;;;;;;;;5047552;28;20045;-66
2022/04/24 14:04:35;;;;;;;8.18;2.97;;;;;;;;;;5040954;28;20140;-66
2022/04/24 14:07:01;;;;;;;7.40;2.90;;;;;;;;;;5048583;28;20037;-65
2022/04/24 14:09:27;;;;;;;8.32;2.85;;;;;;;;;;5046459;28;20092;-66
2022/04/24 14:11:53;;;;;;;6.45;3.28;;;;;;;;;;5045297;28;20048;-66
2022/04/24 14:14:20;;;;;;;8.23;3.30;;;;;;;;;;5046305;28;20136;-66
2022/04/24 14:16:46;;;;;;;8.32;3.45;;;;;;;;;;5044280;28;20037;-66
2022/04/24 14:19:12;;;;;;;8.55;3.00;;;;;;;;;;5046380;28;20400;-66
2022/04/24 14:21:38;;;;;;;9.75;3.00;;;;;;;;;;5045243;28;20037;-67
2022/04/24 14:24:05;;;;;;;7.28;3.20;;;;;;;;;;5047491;28;20047;-66
2022/04/24 14:26:31;;;;;;;8.07;3.35;;;;;;;;;;5041663;28;20127;-67
2022/04/24 14:28:58;;;;;;;7.55;2.97;;;;;;;;;;5046032;28;20045;-67
2022/04/24 14:31:26;;;;;;;8.23;3.30;;;;;;;;;;5046652;28;20036;-66
2022/04/24 14:33:53;;;;;;;9.13;2.92;;;;;;;;;;5044437;28;20504;-67
2022/04/24 14:36:19;;;;;;;9.48;2.65;;;;;;;;;;5044240;28;20065;-67
2022/04/24 14:38:45;;;;;;;16.52;2.80;;;;;;;;;;5064984;28;20052;-67
2022/04/24 14:41:11;;;;;;;7.80;3.17;;;;;;;;;;5065867;28;20141;-67
2022/04/24 14:43:38;;;;;;;9.23;3.35;;;;;;;;;;5067522;28;20051;-67